createdAt,value
2022-09-23T00:02:16.686Z,10.95
2022-09-23T00:04:45.070Z,10.91
2022-09-23T00:07:13.418Z,10.87
2022-09-23T00:09:43.020Z,10.83
2022-09-23T00:12:11.421Z,10.80
2022-09-23T00:14:40.704Z,10.74
2022-09-23T00:17:09.015Z,10.73
2022-09-23T00:19:40.398Z,10.70
2022-09-23T00:22:09.024Z,10.69
2022-09-23T00:24:37.513Z,10.66
2022-09-23T00:27:07.374Z,10.62
2022-09-23T00:29:36.939Z,10.64
2022-09-23T00:32:06.066Z,10.62
2022-09-23T00:34:34.537Z,10.59
2022-09-23T00:37:02.782Z,10.58
2022-09-23T00:39:31.335Z,10.57
2022-09-23T00:41:59.687Z,10.50
2022-09-23T00:44:48.914Z,10.48
2022-09-23T00:47:25.574Z,10.44
2022-09-23T00:50:03.899Z,10.42
2022-09-23T00:52:33.291Z,10.39
2022-09-23T00:55:11.086Z,10.38
2022-09-23T00:57:41.443Z,10.35
2022-09-23T01:00:13.238Z,10.31
2022-09-23T01:02:41.636Z,10.32
2022-09-23T01:05:10.991Z,10.28
2022-09-23T01:07:39.326Z,10.26
2022-09-23T01:10:10.037Z,10.24
2022-09-23T01:12:54.776Z,10.20
2022-09-23T01:15:32.507Z,10.15
2022-09-23T01:18:12.429Z,10.13
2022-09-23T01:21:16.658Z,10.09
2022-09-23T01:24:55.575Z,10.04
2022-09-23T01:27:56.840Z,9.98
2022-09-23T01:30:47.498Z,9.93
2022-09-23T01:33:24.309Z,9.91
2022-09-23T01:36:06.199Z,9.88
2022-09-23T01:38:43.468Z,9.87
2022-09-23T01:41:26.670Z,9.83
2022-09-23T01:44:02.601Z,9.83
2022-09-23T01:46:38.894Z,9.80
2022-09-23T01:49:13.727Z,9.78
2022-09-23T01:51:47.391Z,9.73
2022-09-23T01:54:21.199Z,9.72
2022-09-23T01:56:55.111Z,9.70
2022-09-23T01:59:31.523Z,9.67
2022-09-23T02:02:06.877Z,9.63
2022-09-23T02:04:45.794Z,9.61
2022-09-23T02:07:21.408Z,9.59
2022-09-23T02:09:56.103Z,9.57
2022-09-23T02:12:28.564Z,9.55
2022-09-23T02:15:03.957Z,9.54
2022-09-23T02:17:40.084Z,9.53
2022-09-23T02:20:09.482Z,9.50
2022-09-23T02:22:42.672Z,9.47
2022-09-23T02:25:13.076Z,9.45
2022-09-23T02:27:48.956Z,9.42
2022-09-23T02:30:20.067Z,9.39
2022-09-23T02:32:56.555Z,9.35
2022-09-23T02:35:33.291Z,9.30
2022-09-23T02:38:17.730Z,9.29
2022-09-23T02:40:57.537Z,9.29
2022-09-23T02:43:35.468Z,9.25
2022-09-23T02:46:05.042Z,9.28
2022-09-23T02:48:40.666Z,9.28
2022-09-23T02:51:09.912Z,9.26
2022-09-23T02:53:38.597Z,9.24
2022-09-23T02:56:16.689Z,9.21
2022-09-23T02:58:46.946Z,9.18
2022-09-23T03:01:32.644Z,9.17
2022-09-23T03:04:14.858Z,9.13
2022-09-23T03:06:55.890Z,9.09
2022-09-23T03:09:30.750Z,9.06
2022-09-23T03:12:12.794Z,9.04
2022-09-23T03:14:49.934Z,9.04
2022-09-23T03:17:27.111Z,9.00
2022-09-23T03:20:04.051Z,8.97
2022-09-23T03:22:39.416Z,8.98
2022-09-23T03:25:13.250Z,8.94
2022-09-23T03:27:42.904Z,8.93
2022-09-23T03:30:12.980Z,8.90
2022-09-23T03:32:46.041Z,8.88
2022-09-23T03:35:16.321Z,8.85
2022-09-23T03:37:52.407Z,8.83
2022-09-23T03:40:26.310Z,8.78
2022-09-23T03:42:56.363Z,8.81
2022-09-23T03:45:29.381Z,8.80
2022-09-23T03:47:57.631Z,8.80
2022-09-23T03:50:27.222Z,8.78
2022-09-23T03:52:55.766Z,8.76
2022-09-23T03:55:24.068Z,8.72
2022-09-23T03:57:52.451Z,8.72
2022-09-23T04:00:20.849Z,8.71
2022-09-23T04:02:49.900Z,8.69
2022-09-23T04:05:18.377Z,8.66
2022-09-23T04:07:48.539Z,8.63
2022-09-23T04:10:16.896Z,8.61
2022-09-23T04:12:45.131Z,8.59
2022-09-23T04:15:13.458Z,8.58
2022-09-23T04:17:41.918Z,8.57
2022-09-23T04:20:10.959Z,8.54
2022-09-23T04:22:39.204Z,8.53
2022-09-23T04:25:10.498Z,8.52
2022-09-23T04:27:38.869Z,8.51
2022-09-23T04:30:08.542Z,8.49
2022-09-23T04:32:36.809Z,8.47
2022-09-23T04:35:06.727Z,8.45
2022-09-23T04:37:34.941Z,8.44
2022-09-23T04:40:03.876Z,8.42
2022-09-23T04:42:33.560Z,8.40
2022-09-23T04:45:01.810Z,8.39
2022-09-23T04:47:32.590Z,8.35
2022-09-23T04:50:00.847Z,8.34
2022-09-23T04:52:29.143Z,8.33
2022-09-23T04:54:57.386Z,8.31
2022-09-23T04:57:26.163Z,8.31
2022-09-23T04:59:57.408Z,8.30
2022-09-23T05:02:25.782Z,8.31
2022-09-23T05:04:54.382Z,8.30
2022-09-23T05:07:22.751Z,8.28
2022-09-23T05:09:50.973Z,8.27
2022-09-23T05:12:19.258Z,8.24
2022-09-23T05:14:47.443Z,8.23
2022-09-23T05:17:17.076Z,8.20
2022-09-23T05:19:45.433Z,8.20
2022-09-23T05:22:13.698Z,8.17
2022-09-23T05:24:42.071Z,8.19
2022-09-23T05:27:10.375Z,8.19
2022-09-23T05:29:39.211Z,8.17
2022-09-23T05:32:08.016Z,8.16
2022-09-23T05:34:37.657Z,8.16
2022-09-23T05:37:06.231Z,8.17
2022-09-23T05:39:34.526Z,8.17
2022-09-23T05:42:02.793Z,8.18
2022-09-23T05:44:31.061Z,8.19
2022-09-23T05:46:59.399Z,8.21
2022-09-23T05:49:48.265Z,8.21
2022-09-23T05:52:17.611Z,8.24
2022-09-23T05:54:45.882Z,8.23
2022-09-23T05:57:14.113Z,8.29
2022-09-23T05:59:43.352Z,8.32
2022-09-23T06:02:11.736Z,8.36
2022-09-23T06:04:40.115Z,8.40
2022-09-23T06:07:08.681Z,8.43
2022-09-23T06:09:38.303Z,8.48
2022-09-23T06:12:07.411Z,8.52
2022-09-23T06:14:35.711Z,8.56
2022-09-23T06:17:05.558Z,8.61
2022-09-23T06:19:33.749Z,8.65
2022-09-23T06:22:02.006Z,8.73
2022-09-23T06:24:31.585Z,8.78
2022-09-23T06:27:02.562Z,8.85
2022-09-23T06:29:33.170Z,8.90
2022-09-23T06:32:01.836Z,8.97
2022-09-23T06:34:31.966Z,9.06
2022-09-23T06:37:12.994Z,9.16
2022-09-23T06:39:46.674Z,9.26
2022-09-23T06:42:16.654Z,9.39
2022-09-23T06:44:44.999Z,9.50
2022-09-23T06:47:13.286Z,9.65
2022-09-23T06:49:41.563Z,9.80
2022-09-23T06:52:09.828Z,9.97
2022-09-23T06:54:38.105Z,10.12
2022-09-23T06:57:06.443Z,10.29
2022-09-23T06:59:36.055Z,10.45
2022-09-23T07:02:04.547Z,10.64
2022-09-23T07:04:32.906Z,10.81
2022-09-23T07:07:01.102Z,11.00
2022-09-23T07:09:29.360Z,11.17
2022-09-23T07:11:57.573Z,11.36
2022-09-23T07:14:26.070Z,11.53
2022-09-23T07:16:55.708Z,11.74
2022-09-23T07:19:26.147Z,11.94
2022-09-23T07:21:54.383Z,12.15
2022-09-23T07:24:22.990Z,12.35
2022-09-23T07:26:51.493Z,12.57
2022-09-23T07:29:19.697Z,12.76
2022-09-23T07:31:47.983Z,13.00
2022-09-23T07:34:17.633Z,13.20
2022-09-23T07:36:45.879Z,13.41
2022-09-23T07:39:14.961Z,13.60
2022-09-23T07:41:44.683Z,13.85
2022-09-23T07:44:13.419Z,14.05
2022-09-23T07:46:41.697Z,14.27
2022-09-23T07:49:10.492Z,14.50
2022-09-23T07:51:41.735Z,14.72
2022-09-23T07:54:14.549Z,14.96
2022-09-23T07:56:44.185Z,15.19
2022-09-23T07:59:15.391Z,15.42
2022-09-23T08:01:47.946Z,15.63
2022-09-23T08:04:18.918Z,15.87
2022-09-23T08:06:51.402Z,16.10
2022-09-23T08:09:22.222Z,16.34
2022-09-23T08:11:52.128Z,16.52
2022-09-23T08:14:22.330Z,16.77
2022-09-23T08:16:51.902Z,16.98
2022-09-23T08:19:20.604Z,17.21
2022-09-23T08:21:52.237Z,17.44
2022-09-23T08:24:24.227Z,17.63
2022-09-23T08:26:54.343Z,17.85
2022-09-23T08:29:24.363Z,18.04
2022-09-23T08:31:53.523Z,18.22
2022-09-23T08:34:23.721Z,18.41
2022-09-23T08:36:53.386Z,18.60
2022-09-23T08:39:23.146Z,18.78
2022-09-23T08:42:07.115Z,18.99
2022-09-23T08:44:50.917Z,19.16
2022-09-23T08:47:25.164Z,19.33
2022-09-23T08:50:01.636Z,19.50
2022-09-23T08:52:39.487Z,19.66
2022-09-23T08:55:13.602Z,19.83
2022-09-23T08:58:23.548Z,19.98
2022-09-23T09:00:47.848Z,20.16
2022-09-23T09:03:24.878Z,20.34
2022-09-23T09:05:54.778Z,20.52
2022-09-23T09:08:32.020Z,20.68
2022-09-23T09:11:01.386Z,20.82
2022-09-23T09:13:34.672Z,20.94
2022-09-23T09:17:01.346Z,21.11
2022-09-23T09:19:55.277Z,21.29
2022-09-23T09:22:44.022Z,21.42
2022-09-23T09:25:25.574Z,21.59
2022-09-23T09:27:55.139Z,21.68
2022-09-23T09:30:25.052Z,21.81
2022-09-23T09:33:00.677Z,21.95
2022-09-23T09:35:38.139Z,22.04
2022-09-23T09:38:06.826Z,22.12
2022-09-23T09:40:37.252Z,22.24
2022-09-23T09:43:05.623Z,22.34
2022-09-23T09:45:57.963Z,22.46
2022-09-23T09:48:37.811Z,22.58
2022-09-23T09:51:21.472Z,22.70
2022-09-23T09:53:52.116Z,22.77
2022-09-23T09:56:27.269Z,22.83
2022-09-23T09:59:00.928Z,22.88
2022-09-23T10:01:32.167Z,22.93
2022-09-23T10:04:04.675Z,22.97
2022-09-23T10:06:35.761Z,23.06
2022-09-23T10:09:15.984Z,23.11
2022-09-23T10:12:13.086Z,23.14
2022-09-23T10:14:41.347Z,23.20
2022-09-23T10:17:16.361Z,23.21
2022-09-23T10:19:49.389Z,23.22
2022-09-23T10:22:26.382Z,23.29
2022-09-23T10:24:56.288Z,23.38
2022-09-23T10:27:33.530Z,23.46
2022-09-23T10:30:05.299Z,23.57
2022-09-23T10:32:37.492Z,23.67
2022-09-23T10:35:16.921Z,23.79
2022-09-23T10:37:49.437Z,23.93
2022-09-23T10:40:40.213Z,24.03
2022-09-23T10:43:41.272Z,24.13
2022-09-23T10:46:39.618Z,24.17
2022-09-23T10:49:53.193Z,24.23
2022-09-23T10:52:39.341Z,24.33
2022-09-23T10:55:20.939Z,24.40
2022-09-23T10:58:33.229Z,24.39
2022-09-23T11:01:17.448Z,24.39
2022-09-23T11:04:16.469Z,24.42
2022-09-23T11:07:07.253Z,24.45
2022-09-23T11:09:51.126Z,24.49
2022-09-23T11:12:35.840Z,24.52
2022-09-23T11:15:27.805Z,24.60
2022-09-23T11:18:36.128Z,24.73
2022-09-23T11:21:32.869Z,24.84
2022-09-23T11:24:39.342Z,24.96
2022-09-23T11:27:20.269Z,25.04
2022-09-23T11:30:09.556Z,25.13
2022-09-23T11:33:14.231Z,25.21
2022-09-23T11:35:49.822Z,25.28
2022-09-23T11:38:25.970Z,25.29
2022-09-23T11:41:00.838Z,25.31
2022-09-23T11:43:33.896Z,25.32
2022-09-23T11:46:09.514Z,25.27
2022-09-23T11:48:47.394Z,25.27
2022-09-23T11:51:24.703Z,25.31
2022-09-23T11:53:56.978Z,25.38
2022-09-23T11:56:35.524Z,25.41
2022-09-23T11:59:13.492Z,25.38
2022-09-23T12:01:49.767Z,25.31
2022-09-23T12:04:29.704Z,25.18
2022-09-23T12:07:04.054Z,25.11
2022-09-23T12:09:57.805Z,25.08
2022-09-23T12:12:32.886Z,25.05
2022-09-23T12:15:06.255Z,25.01
2022-09-23T12:18:00.126Z,25.01
2022-09-23T12:20:58.974Z,25.03
2022-09-23T12:23:53.113Z,25.07
2022-09-23T12:26:24.644Z,25.10
2022-09-23T12:28:55.675Z,25.15
2022-09-23T12:31:30.685Z,25.17
2022-09-23T12:34:01.867Z,25.19
2022-09-23T12:36:35.742Z,25.17
2022-09-23T12:39:07.435Z,25.16
2022-09-23T12:41:40.212Z,25.13
2022-09-23T12:44:31.529Z,25.14
2022-09-23T12:47:37.338Z,25.12
2022-09-23T12:50:50.864Z,25.12
2022-09-23T12:53:55.239Z,25.12
2022-09-23T12:56:27.928Z,25.15
2022-09-23T12:59:22.127Z,25.18
2022-09-23T13:01:50.565Z,25.17
2022-09-23T13:05:02.588Z,25.07
2022-09-23T13:07:34.225Z,25.08
2022-09-23T13:10:15.056Z,25.06
2022-09-23T13:12:44.817Z,25.05
2022-09-23T13:15:28.778Z,25.03
2022-09-23T13:18:26.174Z,24.99
2022-09-23T13:20:56.879Z,24.93
2022-09-23T13:23:26.903Z,24.90
2022-09-23T13:26:00.752Z,24.84
2022-09-23T13:28:43.031Z,24.78
2022-09-23T13:31:17.481Z,24.77
2022-09-23T13:33:49.248Z,24.76
2022-09-23T13:36:21.148Z,24.73
2022-09-23T13:38:49.567Z,24.76
2022-09-23T13:41:23.108Z,24.73
2022-09-23T13:43:55.313Z,24.69
2022-09-23T13:46:27.048Z,24.68
2022-09-23T13:48:56.519Z,24.65
2022-09-23T13:51:28.328Z,24.62
2022-09-23T13:53:59.023Z,24.60
2022-09-23T13:56:31.671Z,24.54
2022-09-23T13:59:25.731Z,24.51
2022-09-23T14:02:06.045Z,24.47
2022-09-23T14:04:34.458Z,24.47
2022-09-23T14:07:03.834Z,24.48
2022-09-23T14:09:33.234Z,24.50
2022-09-23T14:12:06.046Z,24.53
2022-09-23T14:14:37.081Z,24.58
2022-09-23T14:17:06.595Z,24.57
2022-09-23T14:19:36.501Z,24.60
2022-09-23T14:22:08.176Z,24.63
2022-09-23T14:24:40.558Z,24.64
2022-09-23T14:27:17.565Z,24.64
2022-09-23T14:29:48.177Z,24.63
2022-09-23T14:32:21.133Z,24.62
2022-09-23T14:34:53.451Z,24.58
2022-09-23T14:37:47.573Z,24.54
2022-09-23T14:40:19.645Z,24.49
2022-09-23T14:42:52.909Z,24.43
2022-09-23T14:47:58.847Z,24.31
2022-09-23T14:50:47.193Z,24.25
2022-09-23T14:53:36.858Z,24.13
2022-09-23T14:56:20.939Z,24.05
2022-09-23T14:58:54.194Z,23.99
2022-09-23T15:01:36.566Z,23.89
2022-09-23T15:04:16.201Z,23.78
2022-09-23T15:06:50.699Z,23.69
2022-09-23T15:09:28.021Z,23.60
2022-09-23T15:12:02.041Z,23.50
2022-09-23T15:14:39.627Z,23.39
2022-09-23T15:17:25.890Z,23.29
2022-09-23T15:19:57.126Z,23.19
2022-09-23T15:22:26.139Z,23.09
2022-09-23T15:24:56.435Z,22.97
2022-09-23T15:27:30.885Z,22.85
2022-09-23T15:30:19.629Z,22.73
2022-09-23T15:32:48.904Z,22.62
2022-09-23T15:35:19.628Z,22.53
2022-09-23T15:37:50.082Z,22.43
2022-09-23T15:40:22.769Z,22.35
2022-09-23T15:42:52.669Z,22.29
2022-09-23T15:45:31.633Z,22.20
2022-09-23T15:48:04.180Z,22.13
2022-09-23T15:50:35.121Z,22.04
2022-09-23T15:53:03.580Z,21.96
2022-09-23T15:55:32.012Z,21.90
2022-09-23T15:58:00.584Z,21.82
2022-09-23T16:00:30.352Z,21.75
2022-09-23T16:02:58.693Z,21.68
2022-09-23T16:05:33.172Z,21.63
2022-09-23T16:08:07.900Z,21.58
2022-09-23T16:10:37.842Z,21.51
2022-09-23T16:13:11.710Z,21.45
2022-09-23T16:15:42.022Z,21.38
2022-09-23T16:18:11.875Z,21.29
2022-09-23T16:20:43.009Z,21.21
2022-09-23T16:23:34.702Z,21.10
2022-09-23T16:26:07.285Z,21.00
2022-09-23T16:28:35.921Z,20.91
2022-09-23T16:31:05.942Z,20.81
2022-09-23T16:33:34.301Z,20.72
2022-09-23T16:36:03.418Z,20.62
2022-09-23T16:38:32.822Z,20.50
2022-09-23T16:41:01.421Z,20.40
2022-09-23T16:43:31.669Z,20.30
2022-09-23T16:46:00.388Z,20.20
2022-09-23T16:48:30.114Z,20.12
2022-09-23T16:50:58.500Z,20.04
2022-09-23T16:53:30.585Z,19.93
2022-09-23T16:55:59.029Z,19.86
2022-09-23T16:58:27.350Z,19.75
2022-09-23T17:01:16.205Z,19.68
2022-09-23T17:03:47.247Z,19.57
2022-09-23T17:06:19.379Z,19.49
2022-09-23T17:08:49.356Z,19.43
2022-09-23T17:11:18.243Z,19.34
2022-09-23T17:13:47.586Z,19.27
2022-09-23T17:16:24.820Z,19.16
2022-09-23T17:18:56.499Z,19.08
2022-09-23T17:21:27.003Z,19.02
2022-09-23T17:23:55.907Z,18.90
2022-09-23T17:26:26.811Z,18.82
2022-09-23T17:28:57.521Z,18.74
2022-09-23T17:31:26.626Z,18.66
2022-09-23T17:33:56.619Z,18.57
2022-09-23T17:36:24.937Z,18.50
2022-09-23T17:38:54.477Z,18.45
2022-09-23T17:41:22.986Z,18.40
2022-09-23T17:43:56.674Z,18.30
2022-09-23T17:46:25.373Z,18.25
2022-09-23T17:48:55.751Z,18.19
2022-09-23T17:51:25.293Z,18.10
2022-09-23T17:53:53.850Z,18.05
2022-09-23T17:56:24.941Z,17.98
2022-09-23T17:58:54.719Z,17.90
2022-09-23T18:01:25.821Z,17.85
2022-09-23T18:03:58.225Z,17.80
2022-09-23T18:06:28.985Z,17.74
2022-09-23T18:08:57.339Z,17.68
2022-09-23T18:11:27.769Z,17.62
2022-09-23T18:13:58.439Z,17.56
2022-09-23T18:16:29.235Z,17.48
2022-09-23T18:19:01.545Z,17.41
2022-09-23T18:21:32.683Z,17.34
2022-09-23T18:26:50.687Z,17.21
2022-09-23T18:29:19.710Z,17.16
2022-09-23T18:31:49.280Z,17.09
2022-09-23T18:34:20.318Z,17.04
2022-09-23T18:36:48.822Z,16.98
2022-09-23T18:39:17.348Z,16.90
2022-09-23T18:41:45.713Z,16.83
2022-09-23T18:44:14.075Z,16.77
2022-09-23T18:46:42.846Z,16.72
2022-09-23T18:49:28.609Z,16.65
2022-09-23T18:51:59.508Z,16.56
2022-09-23T18:54:30.391Z,16.50
2022-09-23T18:56:59.349Z,16.46
2022-09-23T18:59:29.123Z,16.40
2022-09-23T19:01:58.310Z,16.33
2022-09-23T19:04:28.184Z,16.27
2022-09-23T19:06:58.853Z,16.20
2022-09-23T19:09:27.309Z,16.14
2022-09-23T19:11:55.671Z,16.09
2022-09-23T19:14:23.967Z,16.02
2022-09-23T19:16:52.323Z,15.95
2022-09-23T19:19:20.927Z,15.90
2022-09-23T19:21:49.313Z,15.87
2022-09-23T19:24:20.507Z,15.81
2022-09-23T19:26:50.378Z,15.74
2022-09-23T19:29:21.816Z,15.69
2022-09-23T19:31:51.080Z,15.63
2022-09-23T19:34:23.850Z,15.58
2022-09-23T19:36:52.882Z,15.52
2022-09-23T19:39:24.971Z,15.47
2022-09-23T19:41:55.784Z,15.42
2022-09-23T19:44:25.204Z,15.37
2022-09-23T19:46:56.733Z,15.31
2022-09-23T19:49:26.123Z,15.29
2022-09-23T19:51:56.664Z,15.25
2022-09-23T19:54:27.604Z,15.20
2022-09-23T19:56:56.456Z,15.15
2022-09-23T19:59:26.456Z,15.13
2022-09-23T20:01:55.294Z,15.09
2022-09-23T20:04:23.800Z,15.08
2022-09-23T20:06:52.178Z,15.05
2022-09-23T20:09:20.874Z,15.01
2022-09-23T20:11:51.034Z,14.99
2022-09-23T20:14:19.469Z,14.94
2022-09-23T20:16:48.082Z,14.89
2022-09-23T20:19:16.664Z,14.84
2022-09-23T20:21:45.023Z,14.80
2022-09-23T20:24:16.207Z,14.75
2022-09-23T20:27:01.714Z,14.72
2022-09-23T20:29:31.452Z,14.65
2022-09-23T20:31:59.769Z,14.64
2022-09-23T20:34:29.697Z,14.59
2022-09-23T20:36:59.232Z,14.57
2022-09-23T20:39:28.107Z,14.53
2022-09-23T20:41:56.574Z,14.53
2022-09-23T20:44:25.113Z,14.50
2022-09-23T20:46:54.981Z,14.46
2022-09-23T20:49:23.429Z,14.42
2022-09-23T20:51:52.123Z,14.38
2022-09-23T20:54:21.033Z,14.34
2022-09-23T20:56:49.351Z,14.32
2022-09-23T20:59:17.981Z,14.28
2022-09-23T21:01:46.757Z,14.21
2022-09-23T21:04:16.677Z,14.22
2022-09-23T21:06:45.047Z,14.20
2022-09-23T21:09:13.329Z,14.18
2022-09-23T21:11:41.805Z,14.17
2022-09-23T21:14:10.731Z,14.13
2022-09-23T21:16:39.492Z,14.13
2022-09-23T21:19:08.565Z,14.12
2022-09-23T21:21:38.950Z,14.08
2022-09-23T21:24:36.011Z,14.06
2022-09-23T21:26:56.011Z,14.02
2022-09-23T21:29:24.310Z,14.00
2022-09-23T21:31:52.763Z,13.93
2022-09-23T21:34:21.126Z,13.97
2022-09-23T21:36:50.836Z,13.96
2022-09-23T21:39:19.525Z,13.94
2022-09-23T21:41:47.884Z,13.90
2022-09-23T21:44:16.455Z,13.87
2022-09-23T21:46:44.884Z,13.85
2022-09-23T21:49:13.322Z,13.81
2022-09-23T21:51:42.565Z,13.76
2022-09-23T21:54:15.994Z,13.74
2022-09-23T21:56:45.445Z,13.70
2022-09-23T21:59:14.005Z,13.68
2022-09-23T22:01:45.212Z,13.66
2022-09-23T22:04:17.671Z,13.61
2022-09-23T22:06:48.876Z,13.59
2022-09-23T22:09:21.849Z,13.58
2022-09-23T22:12:09.845Z,13.57
2022-09-23T22:14:39.126Z,13.56
2022-09-23T22:17:11.347Z,13.55
2022-09-23T22:19:45.877Z,13.54
2022-09-23T22:22:18.111Z,13.53
2022-09-23T22:24:49.121Z,13.52
2022-09-23T22:27:19.996Z,13.52
2022-09-23T22:30:05.868Z,13.53
2022-09-23T22:32:43.679Z,13.53
2022-09-23T22:35:16.571Z,13.51
2022-09-23T22:37:45.489Z,13.52
2022-09-23T22:40:16.774Z,13.47
2022-09-23T22:42:45.840Z,13.49
2022-09-23T22:45:14.754Z,13.47
2022-09-23T22:47:45.566Z,13.45
2022-09-23T22:50:16.096Z,13.45
2022-09-23T22:52:44.503Z,13.43
2022-09-23T22:55:14.463Z,13.42
2022-09-23T22:57:42.837Z,13.42
2022-09-23T23:00:13.500Z,13.42
2022-09-23T23:02:42.514Z,13.39
2022-09-23T23:05:11.376Z,13.37
2022-09-23T23:07:40.557Z,13.37
2022-09-23T23:10:10.341Z,13.35
2022-09-23T23:12:41.670Z,13.33
2022-09-23T23:15:12.889Z,13.31
2022-09-23T23:17:43.683Z,13.29
2022-09-23T23:20:12.266Z,13.29
2022-09-23T23:22:40.615Z,13.29
2022-09-23T23:25:10.509Z,13.30
2022-09-23T23:27:40.252Z,13.27
2022-09-23T23:30:10.334Z,13.28
2022-09-23T23:32:38.857Z,13.26
2022-09-23T23:35:08.591Z,13.27
2022-09-23T23:37:36.990Z,13.26
2022-09-23T23:40:06.331Z,13.24
2022-09-23T23:42:34.778Z,13.24
2022-09-23T23:45:05.026Z,13.23
2022-09-23T23:47:33.395Z,13.23
2022-09-23T23:50:04.423Z,13.23
2022-09-23T23:52:32.770Z,13.20
2022-09-23T23:55:01.109Z,13.20
2022-09-23T23:57:29.519Z,13.18
2022-09-23T23:59:57.867Z,13.16
